sim
Sign-in with your pilot id or email,
or register
Callsign
Passwort

Schedule Details

Flight Number: OEO1629
Departure: Copenhagen Airport (EKCH) at 06:40
Arrival: Munich Airport (EDDM) at 08:20

Weather Information
Getting current METAR information for EKCH 221720Z AUTO 17006KT 9999 NCD 17/14 Q1008 NOSIG
Getting current METAR information for EDDM 221720Z 12002KT 9999 FEW040CB 19/15 Q1010 NOSIG

Schedule Frequency

Route Map